Archival Weather

Luke Afb

Glendale, Arizona (KLUF)

Report from: Friday, April 19, 2024 7:55 PM MST
Current time: Monday, June 24, 2024 3:36 AM MST

Current weather – Weather history – Daily summaries
Weather forecast

Temperature28.7°C (83.7°F)
Heat index27.1°C (80.8°F)
Dew point-7.3°C (18.9°F)
Winds 4 kts (2.1 m/s, 4.6 mph) West (280°)
Visibility10 mi. (16.1 km)
Clouds Sky clear
Altimeter29.73 in.Hg (1007 mB)
Relative humidity9 %
Density altitude1,896 ft. (578 m)
Sea-level pressure100.6 kPa (1006 mB, 29.70 in.Hg)
Remarks Fully automated report
System requires maintenance
Automated weather observing station with precipitation discriminator
Pressure rising more quickly
Flight conditions Visual Meteorological Conditions
Raw dataKLUF 200255Z AUTO 28004KT 10SM CLR 29/M07 A2973 RMK AO2 SLP056 T02871073 53003 $
An error has occurred. This application may no longer respond until reloaded. Reload 🗙